createdAt,value
2022-10-05T00:01:53.150Z,12.14
2022-10-05T00:04:23.627Z,12.18
2022-10-05T00:06:59.709Z,12.19
2022-10-05T00:09:31.616Z,12.19
2022-10-05T00:12:09.432Z,12.11
2022-10-05T00:14:37.084Z,12.10
2022-10-05T00:17:05.576Z,12.05
2022-10-05T00:19:37.547Z,11.83
2022-10-05T00:22:13.448Z,11.79
2022-10-05T00:24:40.615Z,11.79
2022-10-05T00:27:17.066Z,11.72
2022-10-05T00:29:44.392Z,11.73
2022-10-05T00:32:11.470Z,11.73
2022-10-05T00:34:39.274Z,11.81
2022-10-05T00:37:06.991Z,11.86
2022-10-05T00:39:36.551Z,11.85
2022-10-05T00:42:27.686Z,11.86
2022-10-05T00:45:04.860Z,11.90
2022-10-05T00:47:45.023Z,11.87
2022-10-05T00:50:47.237Z,11.79
2022-10-05T00:53:34.191Z,11.78
2022-10-05T00:56:12.849Z,11.78
2022-10-05T00:58:58.729Z,11.74
2022-10-05T01:01:37.115Z,11.72
2022-10-05T01:04:16.775Z,11.70
2022-10-05T01:07:00.582Z,11.67
2022-10-05T01:09:44.390Z,11.61
2022-10-05T01:12:25.443Z,11.62
2022-10-05T01:15:05.123Z,11.60
2022-10-05T01:17:44.033Z,11.55
2022-10-05T01:20:35.123Z,11.47
2022-10-05T01:23:33.811Z,11.46
2022-10-05T01:26:32.900Z,11.44
2022-10-05T01:29:11.955Z,11.43
2022-10-05T01:31:50.371Z,11.38
2022-10-05T01:34:34.123Z,11.37
2022-10-05T01:37:12.612Z,11.41
2022-10-05T01:40:02.834Z,11.40
2022-10-05T01:42:52.169Z,11.44
2022-10-05T01:45:38.342Z,11.50
2022-10-05T01:48:17.430Z,11.51
2022-10-05T01:50:56.800Z,11.48
2022-10-05T01:53:41.643Z,11.43
2022-10-05T01:56:22.698Z,11.34
2022-10-05T01:59:09.189Z,11.32
2022-10-05T02:01:51.716Z,11.29
2022-10-05T02:04:56.971Z,11.25
2022-10-05T02:07:24.637Z,11.23
2022-10-05T02:10:00.887Z,11.19
2022-10-05T02:12:35.252Z,11.19
2022-10-05T02:15:13.442Z,11.22
2022-10-05T02:17:48.428Z,11.26
2022-10-05T02:20:23.258Z,11.25
2022-10-05T02:22:55.941Z,11.22
2022-10-05T02:25:31.046Z,11.19
2022-10-05T02:28:07.885Z,11.15
2022-10-05T02:30:45.579Z,11.22
2022-10-05T02:33:26.752Z,11.25
2022-10-05T02:35:54.877Z,11.22
2022-10-05T02:38:37.237Z,11.19
2022-10-05T02:41:18.410Z,11.17
2022-10-05T02:43:57.413Z,11.05
2022-10-05T02:46:35.472Z,11.05
2022-10-05T02:49:22.207Z,11.02
2022-10-05T02:52:00.218Z,10.97
2022-10-05T02:54:46.664Z,10.99
2022-10-05T02:57:26.108Z,10.76
2022-10-05T03:00:05.866Z,10.66
2022-10-05T03:02:44.101Z,10.50
2022-10-05T03:05:22.203Z,10.59
2022-10-05T03:08:01.436Z,10.68
2022-10-05T03:10:40.475Z,10.68
2022-10-05T03:13:16.871Z,10.68
2022-10-05T03:16:15.207Z,10.58
2022-10-05T03:19:01.075Z,10.57
2022-10-05T03:21:50.603Z,10.46
2022-10-05T03:24:41.283Z,10.45
2022-10-05T03:27:28.498Z,10.34
2022-10-05T03:30:04.317Z,10.35
2022-10-05T03:32:49.720Z,10.24
2022-10-05T03:35:27.544Z,10.31
2022-10-05T03:38:12.058Z,10.37
2022-10-05T03:40:47.236Z,10.37
2022-10-05T03:43:51.833Z,10.31
2022-10-05T03:46:39.066Z,10.41
2022-10-05T03:49:16.965Z,10.48
2022-10-05T03:51:52.266Z,10.55
2022-10-05T03:54:29.917Z,10.62
2022-10-05T03:57:08.657Z,10.68
2022-10-05T03:59:50.994Z,10.69
2022-10-05T04:02:26.217Z,10.69
2022-10-05T04:05:02.088Z,10.68
2022-10-05T04:07:45.205Z,10.65
2022-10-05T04:10:21.827Z,10.56
2022-10-05T04:12:58.117Z,10.54
2022-10-05T04:15:37.019Z,10.52
2022-10-05T04:18:15.276Z,10.51
2022-10-05T04:20:48.057Z,10.52
2022-10-05T04:23:32.899Z,10.56
2022-10-05T04:26:10.307Z,10.57
2022-10-05T04:28:51.543Z,10.43
2022-10-05T04:31:46.050Z,10.38
2022-10-05T04:34:45.666Z,10.42
2022-10-05T04:37:23.566Z,10.46
2022-10-05T04:40:15.976Z,10.46
2022-10-05T04:42:58.252Z,10.45
2022-10-05T04:45:44.914Z,10.44
2022-10-05T04:48:42.642Z,10.42
2022-10-05T04:51:34.336Z,10.40
2022-10-05T04:54:19.763Z,10.31
2022-10-05T04:56:54.711Z,10.29
2022-10-05T04:59:57.727Z,10.28
2022-10-05T05:02:47.685Z,10.29
2022-10-05T05:05:32.841Z,10.31
2022-10-05T05:08:22.219Z,10.33
2022-10-05T05:11:15.132Z,10.33
2022-10-05T05:14:10.251Z,10.39
2022-10-05T05:16:41.938Z,10.41
2022-10-05T05:19:31.163Z,10.31
2022-10-05T05:22:06.800Z,10.34
2022-10-05T05:24:50.796Z,10.37
2022-10-05T05:27:40.330Z,10.31
2022-10-05T05:30:20.431Z,10.33
2022-10-05T05:33:06.190Z,10.50
2022-10-05T05:36:14.239Z,10.60
2022-10-05T05:38:53.133Z,10.58
2022-10-05T05:41:35.374Z,10.56
2022-10-05T05:44:20.268Z,10.58
2022-10-05T05:47:04.059Z,10.45
2022-10-05T05:50:07.455Z,10.39
2022-10-05T05:52:45.752Z,10.49
2022-10-05T05:55:26.445Z,10.59
2022-10-05T05:58:03.686Z,10.75
2022-10-05T06:00:41.609Z,10.83
2022-10-05T06:03:18.826Z,11.33
2022-10-05T06:05:52.583Z,11.70
2022-10-05T06:08:30.683Z,12.30
2022-10-05T06:11:14.250Z,13.28
2022-10-05T06:13:43.393Z,14.06
2022-10-05T06:16:57.770Z,14.73
2022-10-05T06:19:27.834Z,15.36
2022-10-05T06:22:04.199Z,15.87
2022-10-05T06:24:38.412Z,16.50
2022-10-05T06:27:26.072Z,17.12
2022-10-05T06:30:08.283Z,17.52
2022-10-05T06:33:01.710Z,18.13
2022-10-05T06:35:52.394Z,18.73
2022-10-05T06:38:52.541Z,19.07
2022-10-05T06:41:33.794Z,19.49
2022-10-05T06:44:12.538Z,19.46
2022-10-05T06:46:55.560Z,19.59
2022-10-05T06:49:56.332Z,20.05
2022-10-05T06:53:02.595Z,20.39
2022-10-05T06:55:45.080Z,20.65
2022-10-05T06:58:36.376Z,20.91
2022-10-05T07:01:12.606Z,21.13
2022-10-05T07:04:02.137Z,21.42
2022-10-05T07:06:40.858Z,21.64
2022-10-05T07:09:31.704Z,21.83
2022-10-05T07:12:20.986Z,21.79
2022-10-05T07:15:14.175Z,22.02
2022-10-05T07:18:05.119Z,22.36
2022-10-05T07:20:49.003Z,22.20
2022-10-05T07:23:46.649Z,22.54
2022-10-05T07:26:26.301Z,22.80
2022-10-05T07:29:18.774Z,22.70
2022-10-05T07:31:56.707Z,22.66
2022-10-05T07:34:39.743Z,21.92
2022-10-05T07:37:14.799Z,21.96
2022-10-05T07:40:00.442Z,22.43
2022-10-05T07:42:51.836Z,22.68
2022-10-05T07:45:33.247Z,22.47
2022-10-05T07:48:15.230Z,21.83
2022-10-05T07:50:59.547Z,21.88
2022-10-05T07:53:36.586Z,22.40
2022-10-05T07:56:16.708Z,22.93
2022-10-05T07:58:51.679Z,23.28
2022-10-05T08:01:26.638Z,22.24
2022-10-05T08:04:04.713Z,22.11
2022-10-05T08:06:49.646Z,22.94
2022-10-05T08:09:36.713Z,23.54
2022-10-05T08:12:28.715Z,24.33
2022-10-05T08:14:59.954Z,22.02
2022-10-05T08:17:41.101Z,21.98
2022-10-05T08:20:29.531Z,19.35
2022-10-05T08:23:07.057Z,18.99
2022-10-05T08:25:49.323Z,20.14
2022-10-05T08:28:26.246Z,21.89
2022-10-05T08:31:02.138Z,18.56
2022-10-05T08:33:43.547Z,17.49
2022-10-05T08:36:19.049Z,17.41
2022-10-05T08:38:51.436Z,17.08
2022-10-05T08:42:02.203Z,17.62
2022-10-05T08:45:21.105Z,17.69
2022-10-05T08:48:45.251Z,17.74
2022-10-05T08:51:54.191Z,18.80
2022-10-05T08:54:41.789Z,19.10
2022-10-05T08:57:43.822Z,18.02
2022-10-05T09:00:18.780Z,18.49
2022-10-05T09:03:20.706Z,19.06
2022-10-05T09:06:49.322Z,19.07
2022-10-05T09:09:57.232Z,18.87
2022-10-05T09:13:13.335Z,20.87
2022-10-05T09:16:10.962Z,21.04
2022-10-05T09:19:25.575Z,21.34
2022-10-05T09:22:03.179Z,21.25
2022-10-05T09:24:55.116Z,20.57
2022-10-05T09:27:36.823Z,21.82
2022-10-05T09:30:22.152Z,21.71
2022-10-05T09:33:38.151Z,22.12
2022-10-05T09:36:33.699Z,19.69
2022-10-05T09:39:33.859Z,19.52
2022-10-05T09:43:02.374Z,19.75
2022-10-05T09:46:11.915Z,19.75
2022-10-05T09:49:44.936Z,21.06
2022-10-05T09:52:46.422Z,22.39
2022-10-05T09:55:45.814Z,21.10
2022-10-05T09:59:12.225Z,20.07
2022-10-05T10:02:25.910Z,19.99
2022-10-05T10:05:31.651Z,22.29
2022-10-05T10:08:21.189Z,22.35
2022-10-05T10:11:16.914Z,21.71
2022-10-05T10:14:14.327Z,22.35
2022-10-05T10:17:17.728Z,21.74
2022-10-05T10:20:30.104Z,21.10
2022-10-05T10:23:53.983Z,22.61
2022-10-05T10:27:04.342Z,23.27
2022-10-05T10:30:18.429Z,24.28
2022-10-05T10:33:41.652Z,24.35
2022-10-05T10:36:20.590Z,23.94
2022-10-05T10:39:02.164Z,25.34
2022-10-05T10:42:07.934Z,26.02
2022-10-05T10:45:12.291Z,26.81
2022-10-05T10:47:50.339Z,26.09
2022-10-05T10:51:14.290Z,27.85
2022-10-05T10:54:28.446Z,28.99
2022-10-05T10:57:06.916Z,29.89
2022-10-05T11:00:31.305Z,24.85
2022-10-05T11:03:37.619Z,25.63
2022-10-05T11:06:59.485Z,26.77
2022-10-05T11:10:00.640Z,28.66
2022-10-05T11:13:28.000Z,29.64
2022-10-05T11:16:33.549Z,29.87
2022-10-05T11:19:59.613Z,31.91
2022-10-05T11:23:22.708Z,32.92
2022-10-05T11:26:12.918Z,33.50
2022-10-05T11:29:47.176Z,31.46
2022-10-05T11:33:11.578Z,30.10
2022-10-05T11:36:20.883Z,29.69
2022-10-05T11:39:29.283Z,30.02
2022-10-05T11:42:38.974Z,29.24
2022-10-05T11:45:26.807Z,27.88
2022-10-05T11:48:46.983Z,27.89
2022-10-05T11:51:45.270Z,27.12
2022-10-05T11:55:09.316Z,27.40
2022-10-05T11:57:45.232Z,27.48
2022-10-05T12:00:18.195Z,27.41
2022-10-05T12:03:31.792Z,27.05
2022-10-05T12:06:26.246Z,24.74
2022-10-05T12:09:17.193Z,25.51
2022-10-05T12:12:07.145Z,25.99
2022-10-05T12:14:51.327Z,26.22
2022-10-05T12:17:32.758Z,26.31
2022-10-05T12:20:14.214Z,25.99
2022-10-05T12:22:49.409Z,26.17
2022-10-05T12:32:08.996Z,25.06
2022-10-05T12:35:01.800Z,24.71
2022-10-05T12:37:48.108Z,24.90
2022-10-05T12:40:27.028Z,24.69
2022-10-05T12:43:14.087Z,23.97
2022-10-05T12:48:50.854Z,23.31
2022-10-05T12:51:31.758Z,23.82
2022-10-05T12:54:13.482Z,24.13
2022-10-05T12:56:52.990Z,24.30
2022-10-05T12:59:38.089Z,24.30
2022-10-05T13:02:25.367Z,24.54
2022-10-05T13:05:04.256Z,24.38
2022-10-05T13:07:53.611Z,23.94
2022-10-05T13:10:34.988Z,24.30
2022-10-05T13:13:30.456Z,24.42
2022-10-05T13:16:11.505Z,24.27
2022-10-05T13:18:57.918Z,24.27
2022-10-05T13:22:01.390Z,24.29
2022-10-05T13:24:36.458Z,24.20
2022-10-05T13:27:15.859Z,23.89
2022-10-05T13:29:54.291Z,23.95
2022-10-05T13:32:27.528Z,23.98
2022-10-05T13:35:16.488Z,23.96
2022-10-05T13:38:03.731Z,24.07
2022-10-05T13:40:39.075Z,24.05
2022-10-05T13:43:24.885Z,24.20
2022-10-05T13:46:01.455Z,23.85
2022-10-05T13:48:56.274Z,23.90
2022-10-05T13:51:27.639Z,24.05
2022-10-05T13:54:10.453Z,24.21
2022-10-05T13:56:44.831Z,24.35
2022-10-05T13:59:36.196Z,24.44
2022-10-05T14:02:21.657Z,24.52
2022-10-05T14:04:51.147Z,24.53
2022-10-05T14:07:31.037Z,24.50
2022-10-05T14:10:00.200Z,24.48
2022-10-05T14:12:28.339Z,24.44
2022-10-05T14:14:57.567Z,24.14
2022-10-05T14:17:39.806Z,24.26
2022-10-05T14:20:25.039Z,23.78
2022-10-05T14:22:57.980Z,23.63
2022-10-05T14:25:27.958Z,23.73
2022-10-05T14:28:21.913Z,23.82
2022-10-05T14:30:59.176Z,23.89
2022-10-05T14:33:30.067Z,23.82
2022-10-05T14:35:58.698Z,23.82
2022-10-05T14:38:28.768Z,23.87
2022-10-05T14:41:18.199Z,23.87
2022-10-05T14:43:56.583Z,23.65
2022-10-05T14:46:29.085Z,23.68
2022-10-05T14:49:21.477Z,23.87
2022-10-05T14:51:49.803Z,23.91
2022-10-05T14:54:41.052Z,23.98
2022-10-05T14:57:27.082Z,24.08
2022-10-05T15:00:10.199Z,23.77
2022-10-05T15:03:11.284Z,23.56
2022-10-05T15:05:44.853Z,23.47
2022-10-05T15:08:34.933Z,23.57
2022-10-05T15:11:07.076Z,23.47
2022-10-05T15:13:41.521Z,23.38
2022-10-05T15:16:19.040Z,23.26
2022-10-05T15:19:02.489Z,23.43
2022-10-05T15:21:55.736Z,23.33
2022-10-05T15:24:29.011Z,23.39
2022-10-05T15:27:00.941Z,23.44
2022-10-05T15:29:52.057Z,23.50
2022-10-05T15:32:38.144Z,23.54
2022-10-05T15:35:33.965Z,23.31
2022-10-05T15:38:13.339Z,23.30
2022-10-05T15:40:48.732Z,23.37
2022-10-05T15:43:20.837Z,23.30
2022-10-05T15:46:04.246Z,23.20
2022-10-05T15:48:47.662Z,23.32
2022-10-05T15:51:31.204Z,23.26
2022-10-05T15:54:07.292Z,23.34
2022-10-05T15:56:42.382Z,23.34
2022-10-05T15:59:26.495Z,23.33
2022-10-05T16:02:03.726Z,23.28
2022-10-05T16:04:47.434Z,23.16
2022-10-05T16:07:23.667Z,23.01
2022-10-05T16:10:03.450Z,23.02
2022-10-05T16:12:50.676Z,22.87
2022-10-05T16:15:25.114Z,22.75
2022-10-05T16:18:38.298Z,22.65
2022-10-05T16:21:23.231Z,22.56
2022-10-05T16:24:09.936Z,22.52
2022-10-05T16:26:57.916Z,22.49
2022-10-05T16:29:42.445Z,22.52
2022-10-05T16:32:18.914Z,22.54
2022-10-05T16:35:14.907Z,22.43
2022-10-05T16:37:59.726Z,22.39
2022-10-05T16:40:39.955Z,22.29
2022-10-05T16:43:28.144Z,22.13
2022-10-05T16:50:35.541Z,21.60
2022-10-05T16:53:17.681Z,21.17
2022-10-05T16:55:50.591Z,20.96
2022-10-05T16:58:26.949Z,20.83
2022-10-05T17:01:24.132Z,20.71
2022-10-05T17:04:10.192Z,20.49
2022-10-05T17:07:24.025Z,20.23
2022-10-05T17:10:17.881Z,20.03
2022-10-05T17:13:45.752Z,20.02
2022-10-05T17:16:28.651Z,19.97
2022-10-05T17:19:30.054Z,19.75
2022-10-05T17:22:03.008Z,19.61
2022-10-05T17:24:49.195Z,19.41
2022-10-05T17:27:24.914Z,19.30
2022-10-05T17:29:54.292Z,19.29
2022-10-05T17:32:35.637Z,19.18
2022-10-05T17:35:18.743Z,18.98
2022-10-05T17:38:15.543Z,18.94
2022-10-05T17:41:25.039Z,18.87
2022-10-05T17:44:20.655Z,18.79
2022-10-05T17:46:50.336Z,18.72
2022-10-05T17:49:38.392Z,18.65
2022-10-05T17:52:23.839Z,18.49
2022-10-05T17:55:17.517Z,18.38
2022-10-05T17:57:44.464Z,18.43
2022-10-05T18:00:48.887Z,18.47
2022-10-05T18:03:39.224Z,18.44
2022-10-05T18:06:33.355Z,18.23
2022-10-05T18:09:29.640Z,18.10
2022-10-05T18:12:38.375Z,18.09
2022-10-05T18:15:45.348Z,18.11
2022-10-05T18:18:53.539Z,18.11
2022-10-05T18:21:38.912Z,18.11
2022-10-05T18:24:44.845Z,18.15
2022-10-05T18:28:03.117Z,18.18
2022-10-05T18:30:44.453Z,18.12
2022-10-05T18:33:42.787Z,17.98
2022-10-05T18:36:41.716Z,17.85
2022-10-05T18:39:40.895Z,17.85
2022-10-05T18:42:21.999Z,17.84
2022-10-05T18:44:58.750Z,17.85
2022-10-05T18:47:42.387Z,17.82
2022-10-05T18:50:27.443Z,17.76
2022-10-05T18:53:17.908Z,17.69
2022-10-05T18:55:55.634Z,17.61
2022-10-05T18:58:34.469Z,17.55
2022-10-05T19:01:41.430Z,17.49
2022-10-05T19:04:26.653Z,17.41
2022-10-05T19:07:13.012Z,17.27
2022-10-05T19:10:12.535Z,17.25
2022-10-05T19:12:56.535Z,17.17
2022-10-05T19:15:35.038Z,17.13
2022-10-05T19:18:43.698Z,17.07
2022-10-05T19:21:27.746Z,16.98
2022-10-05T19:24:32.968Z,16.94
2022-10-05T19:27:08.221Z,16.92
2022-10-05T19:30:03.892Z,16.92
2022-10-05T19:32:45.807Z,16.92
2022-10-05T19:35:31.547Z,16.88
2022-10-05T19:38:20.697Z,16.82
2022-10-05T19:41:02.313Z,16.77
2022-10-05T19:44:07.850Z,16.74
2022-10-05T19:46:58.282Z,16.75
2022-10-05T19:49:40.127Z,16.77
2022-10-05T19:52:13.208Z,16.63
2022-10-05T19:54:41.733Z,16.67
2022-10-05T19:57:16.657Z,16.68
2022-10-05T19:59:47.246Z,16.69
2022-10-05T20:02:16.587Z,16.65
2022-10-05T20:04:46.259Z,16.62
2022-10-05T20:07:17.230Z,16.53
2022-10-05T20:09:55.961Z,16.51
2022-10-05T20:12:48.435Z,16.45
2022-10-05T20:15:19.934Z,16.42
2022-10-05T20:17:46.872Z,16.39
2022-10-05T20:20:35.403Z,16.34
2022-10-05T20:23:24.623Z,16.26
2022-10-05T20:25:52.481Z,16.01
2022-10-05T20:28:31.840Z,15.95
2022-10-05T20:30:59.682Z,15.76
2022-10-05T20:33:28.481Z,15.55
2022-10-05T20:35:55.606Z,15.51
2022-10-05T20:38:24.012Z,15.56
2022-10-05T20:40:51.151Z,15.60
2022-10-05T20:43:18.176Z,15.63
2022-10-05T20:45:44.932Z,15.60
2022-10-05T20:48:12.351Z,15.60
2022-10-05T20:50:39.914Z,15.65
2022-10-05T20:53:11.709Z,15.70
2022-10-05T20:55:40.335Z,15.75
2022-10-05T20:58:07.073Z,15.76
2022-10-05T21:00:34.124Z,15.79
2022-10-05T21:03:01.049Z,15.80
2022-10-05T21:05:28.129Z,15.83
2022-10-05T21:07:55.088Z,15.74
2022-10-05T21:10:21.834Z,15.76
2022-10-05T21:12:50.203Z,15.75
2022-10-05T21:15:17.220Z,15.70
2022-10-05T21:17:43.995Z,15.67
2022-10-05T21:20:11.208Z,15.64
2022-10-05T21:22:38.942Z,15.57
2022-10-05T21:25:06.618Z,15.52
2022-10-05T21:27:33.430Z,15.48
2022-10-05T21:30:01.607Z,15.45
2022-10-05T21:32:28.511Z,15.46
2022-10-05T21:34:55.345Z,15.40
2022-10-05T21:37:22.299Z,15.42
2022-10-05T21:39:49.115Z,15.42
2022-10-05T21:42:16.257Z,15.42
2022-10-05T21:44:43.077Z,15.36
2022-10-05T21:47:11.312Z,15.40
2022-10-05T21:49:38.429Z,15.37
2022-10-05T21:52:05.780Z,15.36
2022-10-05T21:54:33.369Z,15.44
2022-10-05T21:57:00.651Z,15.44
2022-10-05T21:59:34.104Z,15.49
2022-10-05T22:02:00.911Z,15.57
2022-10-05T22:04:29.292Z,15.61
2022-10-05T22:06:56.344Z,15.65
2022-10-05T22:09:23.310Z,15.71
2022-10-05T22:11:51.219Z,15.70
2022-10-05T22:14:18.559Z,15.67
2022-10-05T22:16:45.590Z,15.59
2022-10-05T22:19:18.437Z,15.54
2022-10-05T22:21:47.078Z,15.50
2022-10-05T22:24:13.876Z,15.54
2022-10-05T22:26:46.115Z,15.90
2022-10-05T22:29:15.989Z,16.01
2022-10-05T22:31:44.321Z,15.91
2022-10-05T22:34:11.969Z,15.90
2022-10-05T22:36:38.775Z,15.90
2022-10-05T22:39:07.005Z,15.86
2022-10-05T22:41:33.803Z,15.89
2022-10-05T22:44:00.667Z,15.79
2022-10-05T22:46:28.357Z,15.79
2022-10-05T22:48:55.640Z,15.79
2022-10-05T22:51:22.380Z,15.87
2022-10-05T22:53:49.334Z,15.79
2022-10-05T22:56:17.863Z,15.76
2022-10-05T22:58:45.525Z,15.72
2022-10-05T23:01:16.650Z,15.68
2022-10-05T23:03:44.471Z,15.75
2022-10-05T23:06:13.874Z,15.68
2022-10-05T23:08:41.658Z,15.52
2022-10-05T23:11:11.770Z,15.41
2022-10-05T23:13:41.373Z,15.41
2022-10-05T23:16:11.008Z,15.37
2022-10-05T23:18:38.258Z,15.45
2022-10-05T23:21:07.207Z,15.49
2022-10-05T23:23:36.504Z,15.48
2022-10-05T23:26:05.588Z,15.44
2022-10-05T23:28:33.278Z,15.41
2022-10-05T23:31:05.085Z,15.39
2022-10-05T23:33:32.614Z,15.36
2022-10-05T23:35:59.990Z,15.36
2022-10-05T23:38:27.715Z,15.28
2022-10-05T23:40:55.315Z,15.18
2022-10-05T23:43:22.999Z,14.83
2022-10-05T23:45:49.878Z,14.72
2022-10-05T23:48:18.106Z,14.78
2022-10-05T23:50:46.657Z,14.46
2022-10-05T23:53:14.717Z,14.45
2022-10-05T23:55:41.933Z,14.57
2022-10-05T23:58:09.523Z,14.61
